Time;durP1;ratioP1;P1;durP2;ratioP2;P2;SDS_P1;SDS_P2;PMS_P1;PMS_P2;Temp;Humidity;BMP_temperature;BMP_pressure;BME280_temperature;BME280_humidity;BME280_pressure;Samples;Min_cycle;Max_cycle;Signal;HPM_P1;HPM_P2
2022/05/05 00:01:33;;;;;;;12.33;11.27;;;12.20;99.90;;;;;;4862665;29;20489;-87
2022/05/05 00:03:59;;;;;;;11.37;10.47;;;12.20;99.90;;;;;;4874522;29;20535;-85
2022/05/05 00:06:28;;;;;;;11.27;10.30;;;12.10;99.90;;;;;;4861984;29;20199;-86
2022/05/05 00:08:54;;;;;;;12.50;11.40;;;12.10;99.90;;;;;;4875537;29;20571;-85
2022/05/05 00:14:23;;;;;;;11.97;10.87;;;12.50;99.90;;;;;;4885450;29;20907;-86
2022/05/05 00:16:57;;;;;;;12.07;11.07;;;12.10;99.90;;;;;;4862330;29;20457;-88
2022/05/05 00:19:40;;;;;;;12.27;11.27;;;12.00;99.90;;;;;;4858433;29;20503;-86
2022/05/05 00:22:16;;;;;;;11.83;10.77;;;12.00;99.90;;;;;;4856487;29;20460;-85
2022/05/05 00:24:42;;;;;;;13.43;12.23;;;12.10;99.90;;;;;;4868710;29;20456;-85
2022/05/05 00:27:13;;;;;;;12.77;11.63;;;12.20;99.90;;;;;;4883106;29;20975;-86
2022/05/05 00:29:39;;;;;;;12.27;11.17;;;12.20;99.90;;;;;;4875498;29;20744;-86
2022/05/05 00:32:07;;;;;;;12.17;11.00;;;12.30;99.90;;;;;;4892616;29;20448;-86
2022/05/05 00:34:35;;;;;;;13.33;12.23;;;12.30;99.90;;;;;;4879940;29;20181;-85
2022/05/05 00:37:03;;;;;;;13.73;12.47;;;12.20;99.90;;;;;;4874460;29;20581;-85
2022/05/05 00:39:38;;;;;;;13.20;12.00;;;12.40;99.90;;;;;;4888382;29;21972;-86
2022/05/05 00:42:35;;;;;;;12.60;11.50;;;12.10;99.90;;;;;;4872968;29;20452;-86
2022/05/05 00:45:28;;;;;;;12.60;11.50;;;12.10;99.90;;;;;;4868943;29;20540;-88
2022/05/05 00:48:14;;;;;;;12.63;11.53;;;12.10;99.90;;;;;;4878967;29;20479;-86
2022/05/05 00:50:46;;;;;;;12.57;11.57;;;12.50;99.90;;;;;;4884013;29;20460;-85
2022/05/05 00:53:20;;;;;;;12.07;11.00;;;12.00;99.90;;;;;;4871009;29;20465;-85
2022/05/05 00:55:55;;;;;;;12.77;11.60;;;11.90;99.90;;;;;;4862145;29;20442;-85
2022/05/05 00:58:23;;;;;;;12.77;11.50;;;11.90;99.90;;;;;;4887202;29;20874;-85
2022/05/05 01:00:48;;;;;;;13.30;12.10;;;12.10;99.90;;;;;;4867821;29;20465;-86
2022/05/05 01:03:15;;;;;;;13.87;12.50;;;11.90;99.90;;;;;;4880880;29;20528;-86
2022/05/05 01:05:42;;;;;;;13.50;12.30;;;11.90;99.90;;;;;;4862798;29;20189;-86
2022/05/05 01:08:08;;;;;;;13.50;12.20;;;11.80;99.90;;;;;;4866255;29;20519;-86
2022/05/05 01:10:34;;;;;;;12.97;11.83;;;11.80;99.90;;;;;;4865249;29;20590;-85
2022/05/05 01:13:03;;;;;;;13.50;12.30;;;11.80;99.90;;;;;;4859626;29;21280;-86
2022/05/05 01:15:30;;;;;;;12.50;11.40;;;11.80;99.90;;;;;;4861542;29;21121;-86
2022/05/05 01:17:59;;;;;;;13.87;12.60;;;11.80;99.90;;;;;;4861961;29;20433;-86
2022/05/05 01:20:24;;;;;;;12.43;11.33;;;11.80;99.90;;;;;;4864140;29;20449;-86
2022/05/05 01:22:51;;;;;;;11.87;10.87;;;11.80;99.90;;;;;;4860271;29;20434;-86
2022/05/05 01:28:11;;;;;;;12.87;11.57;;;11.70;99.90;;;;;;4863041;29;20496;-86
2022/05/05 01:30:46;;;;;;;11.50;10.60;;;11.70;99.90;;;;;;4885940;29;20536;-87
2022/05/05 01:33:30;;;;;;;13.23;12.13;;;11.60;99.90;;;;;;4862604;29;21100;-86
2022/05/05 01:36:08;;;;;;;12.60;11.50;;;11.70;99.90;;;;;;4871860;29;20744;-86
2022/05/05 01:38:37;;;;;;;12.97;11.67;;;11.70;99.90;;;;;;4892062;29;20466;-86
2022/05/05 01:41:10;;;;;;;12.43;11.33;;;11.70;99.90;;;;;;4870662;29;20492;-86
2022/05/05 01:43:45;;;;;;;12.60;11.30;;;12.00;99.90;;;;;;4856907;29;20481;-86
2022/05/05 01:46:21;;;;;;;12.97;11.77;;;12.00;99.90;;;;;;4870844;29;23666;-86
2022/05/05 01:48:52;;;;;;;12.40;11.30;;;11.70;99.90;;;;;;4881769;29;20492;-86
2022/05/05 01:51:17;;;;;;;13.40;12.00;;;11.80;99.90;;;;;;4872744;29;20485;-86
2022/05/05 01:53:45;;;;;;;12.50;11.40;;;11.70;99.90;;;;;;4895859;29;20541;-86
2022/05/05 01:56:12;;;;;;;12.40;11.30;;;11.70;99.90;;;;;;4876782;29;20189;-86
2022/05/05 01:58:44;;;;;;;13.00;11.80;;;12.10;99.90;;;;;;4873994;29;20469;-86
2022/05/05 02:01:11;;;;;;;12.47;11.40;;;12.00;99.90;;;;;;4867665;29;21114;-86
2022/05/05 02:03:36;;;;;;;12.73;11.53;;;11.60;99.90;;;;;;4856002;29;20465;-86
2022/05/05 02:06:02;;;;;;;13.20;12.00;;;11.70;99.90;;;;;;4859651;29;21050;-86
2022/05/05 02:08:27;;;;;;;12.87;11.77;;;11.60;99.90;;;;;;4870022;29;20233;-87
2022/05/05 02:10:53;;;;;;;12.40;11.30;;;11.60;99.90;;;;;;4881107;29;20205;-86
2022/05/05 02:13:20;;;;;;;11.93;10.93;;;11.70;99.90;;;;;;4888877;29;20199;-86
2022/05/05 02:15:46;;;;;;;12.57;11.50;;;11.70;99.90;;;;;;4873278;29;20184;-85
2022/05/05 02:18:13;;;;;;;12.40;11.30;;;11.90;99.90;;;;;;4875221;29;20445;-85
2022/05/05 02:20:40;;;;;;;12.60;11.30;;;11.80;99.90;;;;;;4861397;29;20204;-86
2022/05/05 02:23:07;;;;;;;13.10;11.53;;;11.60;99.90;;;;;;4875475;29;20571;-86
2022/05/05 02:25:57;;;;;;;13.20;11.90;;;11.50;99.90;;;;;;4860765;29;21117;-86
2022/05/05 02:28:29;;;;;;;12.40;11.20;;;11.60;99.90;;;;;;4891788;29;20495;-86
2022/05/05 02:30:58;;;;;;;12.37;11.33;;;11.60;99.90;;;;;;4870295;29;20531;-86
2022/05/05 02:33:33;;;;;;;11.90;10.90;;;11.60;99.90;;;;;;4875394;29;20456;-86
2022/05/05 02:39:10;;;;;;;11.23;10.30;;;11.70;99.90;;;;;;4865267;29;20467;-86
2022/05/05 02:41:45;;;;;;;12.30;11.30;;;11.60;99.90;;;;;;4872314;29;20444;-86
2022/05/05 02:44:47;;;;;;;12.57;11.57;;;11.60;99.90;;;;;;4864224;29;21080;-86
2022/05/05 02:47:26;;;;;;;11.70;10.60;;;11.50;99.90;;;;;;4869375;29;20449;-86
2022/05/05 02:49:58;;;;;;;13.00;11.70;;;11.40;99.90;;;;;;4858156;29;20540;-86
2022/05/05 02:52:23;;;;;;;12.97;11.87;;;11.40;99.90;;;;;;4883250;29;20631;-85
2022/05/05 02:54:52;;;;;;;12.53;11.33;;;11.40;99.90;;;;;;4860662;29;20441;-85
2022/05/05 02:57:20;;;;;;;13.07;11.87;;;11.30;99.90;;;;;;4872627;29;20185;-86
2022/05/05 02:59:49;;;;;;;13.47;12.27;;;11.30;99.90;;;;;;4873954;29;20991;-85
2022/05/05 03:02:15;;;;;;;12.57;11.47;;;11.20;99.90;;;;;;4874606;29;20433;-86
2022/05/05 03:04:41;;;;;;;11.73;10.63;;;11.20;99.90;;;;;;4872102;29;20548;-86
2022/05/05 03:07:07;;;;;;;13.73;12.07;;;11.10;99.90;;;;;;4878723;29;20532;-85
2022/05/05 03:09:33;;;;;;;13.27;12.03;;;11.50;99.90;;;;;;4870254;29;21548;-86
2022/05/05 03:11:59;;;;;;;13.00;11.80;;;11.10;99.90;;;;;;4863287;29;20449;-86
2022/05/05 03:14:24;;;;;;;12.80;11.70;;;11.10;99.90;;;;;;4863562;29;20500;-87
2022/05/05 03:16:52;;;;;;;13.23;12.10;;;11.10;99.90;;;;;;4879402;29;20452;-87
2022/05/05 03:19:20;;;;;;;11.37;10.30;;;11.10;99.90;;;;;;4867559;29;20289;-86
2022/05/05 03:21:49;;;;;;;12.23;11.23;;;11.00;99.90;;;;;;4878954;29;20433;-86
2022/05/05 03:24:14;;;;;;;12.10;11.10;;;11.10;99.90;;;;;;4861989;29;20445;-87
2022/05/05 03:26:40;;;;;;;13.17;12.03;;;11.00;99.90;;;;;;4868084;29;20502;-86
2022/05/05 03:29:05;;;;;;;12.10;11.10;;;11.00;99.90;;;;;;4865888;29;20586;-87
2022/05/05 03:31:34;;;;;;;12.27;11.07;;;10.90;99.90;;;;;;4864757;29;20724;-87
2022/05/05 03:34:05;;;;;;;12.87;11.57;;;10.90;99.90;;;;;;4879888;29;20221;-86
2022/05/05 03:36:43;;;;;;;11.10;10.10;;;10.90;99.90;;;;;;4866232;29;21584;-85
2022/05/05 03:39:08;;;;;;;12.10;11.00;;;10.90;99.90;;;;;;4878507;29;20461;-85
2022/05/05 03:41:42;;;;;;;10.97;10.07;;;10.80;99.90;;;;;;4872736;29;20458;-85
2022/05/05 03:44:10;;;;;;;12.33;11.23;;;10.60;99.90;;;;;;4865121;29;20188;-85
2022/05/05 03:46:35;;;;;;;11.30;10.17;;;10.80;99.90;;;;;;4859493;29;20441;-86
2022/05/05 03:49:11;;;;;;;;;;;;;;;;;;;;;
2022/05/05 03:51:44;;;;;;;11.33;10.33;;;10.70;99.90;;;;;;4865046;29;20189;-86
2022/05/05 03:54:10;;;;;;;11.40;10.30;;;10.80;99.90;;;;;;4868106;29;20457;-87
2022/05/05 03:56:38;;;;;;;12.40;11.30;;;10.80;99.90;;;;;;4864103;29;20450;-86
2022/05/05 03:59:04;;;;;;;12.10;10.93;;;10.80;99.90;;;;;;4866432;29;20462;-87
2022/05/05 04:01:30;;;;;;;13.30;12.00;;;10.80;99.90;;;;;;4862951;29;20742;-85
2022/05/05 04:03:55;;;;;;;11.13;10.13;;;10.80;99.90;;;;;;4860189;29;20289;-87
2022/05/05 04:06:23;;;;;;;12.07;10.97;;;10.70;99.90;;;;;;4886376;29;20267;-86
2022/05/05 04:08:50;;;;;;;12.47;11.37;;;10.70;99.90;;;;;;4867251;29;20238;-86
2022/05/05 04:11:18;;;;;;;13.17;12.07;;;10.80;99.90;;;;;;4879773;29;20514;-86
2022/05/05 04:13:54;;;;;;;;;;;;;;;;;;;;;
2022/05/05 04:16:22;;;;;;;12.13;11.13;;;11.00;99.90;;;;;;4863170;29;20462;-86
2022/05/05 04:18:47;;;;;;;11.53;10.53;;;11.40;99.90;;;;;;4869709;29;20962;-87
2022/05/05 04:21:13;;;;;;;11.73;10.83;;;11.30;99.90;;;;;;4883620;29;20450;-87
2022/05/05 04:23:41;;;;;;;11.30;10.40;;;11.40;99.90;;;;;;4863008;29;20250;-88
2022/05/05 04:26:11;;;;;;;12.00;11.00;;;11.50;99.90;;;;;;4867832;29;20200;-87
2022/05/05 04:28:36;;;;;;;11.80;10.80;;;11.60;99.90;;;;;;4865514;29;20484;-89
2022/05/05 04:31:03;;;;;;;11.30;10.20;;;11.40;99.90;;;;;;4881303;29;20809;-85
2022/05/05 04:33:30;;;;;;;12.50;11.10;;;11.40;99.90;;;;;;4872312;29;20208;-85
2022/05/05 04:36:13;;;;;;;12.33;11.23;;;11.30;99.90;;;;;;4864119;29;20513;-86
2022/05/05 04:38:48;;;;;;;11.43;10.43;;;11.30;99.90;;;;;;4877567;29;20787;-86
2022/05/05 04:41:19;;;;;;;12.43;11.43;;;11.20;99.90;;;;;;4856593;29;20444;-86
2022/05/05 04:44:10;;;;;;;12.30;11.20;;;11.30;99.90;;;;;;4886314;29;20461;-86
2022/05/05 04:46:35;;;;;;;11.30;10.30;;;11.40;99.90;;;;;;4889188;29;21023;-85
2022/05/05 04:49:03;;;;;;;12.07;10.97;;;11.50;99.90;;;;;;4873607;29;20482;-85
2022/05/05 04:51:29;;;;;;;14.03;10.83;;;11.80;99.90;;;;;;4872057;29;20191;-86
2022/05/05 04:54:00;;;;;;;11.67;10.67;;;11.60;99.90;;;;;;4880365;29;20804;-86
2022/05/05 04:56:26;;;;;;;13.57;12.23;;;11.50;99.90;;;;;;4884496;29;20683;-85
2022/05/05 04:58:53;;;;;;;13.97;12.67;;;11.50;99.90;;;;;;4867736;29;20446;-85
2022/05/05 05:01:19;;;;;;;14.40;13.10;;;11.30;99.90;;;;;;4871401;29;20363;-84
2022/05/05 05:03:47;;;;;;;13.10;12.00;;;11.40;99.90;;;;;;4889491;29;20577;-85
2022/05/05 05:06:15;;;;;;;11.93;10.93;;;11.90;99.90;;;;;;4872920;29;20189;-85
2022/05/05 05:08:42;;;;;;;12.70;11.50;;;11.70;99.90;;;;;;4891738;29;20532;-85
2022/05/05 05:11:08;;;;;;;12.33;11.30;;;12.20;99.90;;;;;;4868688;29;20457;-85
2022/05/05 05:13:36;;;;;;;14.03;11.37;;;12.10;99.90;;;;;;4862961;29;20461;-85
2022/05/05 05:16:04;;;;;;;12.83;11.53;;;12.30;99.90;;;;;;4892506;29;20189;-85
2022/05/05 05:18:30;;;;;;;13.40;12.10;;;12.30;99.90;;;;;;4884697;29;21261;-84
2022/05/05 05:20:56;;;;;;;14.70;11.73;;;12.20;99.90;;;;;;4878527;29;20582;-85
2022/05/05 05:23:22;;;;;;;12.47;11.30;;;12.10;99.90;;;;;;4890965;29;20229;-84
2022/05/05 05:25:57;;;;;;;12.10;11.00;;;12.20;99.90;;;;;;4874324;29;20193;-85
2022/05/05 05:28:23;;;;;;;11.93;10.87;;;12.10;99.90;;;;;;4878721;29;21000;-84
2022/05/05 05:30:48;;;;;;;12.30;11.10;;;12.20;99.90;;;;;;4891654;29;20193;-85
2022/05/05 05:33:17;;;;;;;12.87;11.80;;;12.10;99.90;;;;;;4875503;29;20193;-85
2022/05/05 05:35:44;;;;;;;13.53;12.10;;;12.10;99.90;;;;;;4893297;29;20185;-86
2022/05/05 05:38:13;;;;;;;14.00;11.67;;;12.30;99.90;;;;;;4891648;29;20446;-85
2022/05/05 05:40:39;;;;;;;13.27;12.03;;;12.40;99.90;;;;;;4873221;29;20441;-85
2022/05/05 05:43:04;;;;;;;13.00;11.90;;;12.50;99.90;;;;;;4876961;29;20445;-85
2022/05/05 05:45:35;;;;;;;12.83;11.63;;;12.40;99.90;;;;;;4875363;29;20441;-86
2022/05/05 05:48:01;;;;;;;12.20;11.00;;;12.50;99.90;;;;;;4876025;29;20447;-85
2022/05/05 05:50:33;;;;;;;12.23;11.10;;;12.60;99.90;;;;;;4878841;29;20447;-86
2022/05/05 05:52:59;;;;;;;13.07;11.77;;;12.60;99.90;;;;;;4891640;29;21078;-86
2022/05/05 05:55:29;;;;;;;11.70;10.70;;;12.70;99.90;;;;;;4976830;23;20598;-86
2022/05/05 05:57:55;;;;;;;12.80;11.73;;;12.80;99.90;;;;;;4849573;29;20462;-84
2022/05/05 06:00:25;;;;;;;13.07;11.67;;;13.20;99.90;;;;;;4841505;29;20455;-84
2022/05/05 06:05:36;;;;;;;12.63;11.53;;;13.00;99.90;;;;;;4849115;29;20509;-85
2022/05/05 06:08:03;;;;;;;12.20;11.20;;;13.10;99.90;;;;;;4858707;29;20506;-85
2022/05/05 06:10:29;;;;;;;12.40;11.20;;;13.30;99.90;;;;;;4857270;29;22005;-84
2022/05/05 06:12:55;;;;;;;12.10;11.10;;;13.50;99.90;;;;;;4842668;29;20534;-84
2022/05/05 06:15:24;;;;;;;12.43;11.23;;;13.90;99.90;;;;;;4841462;29;20461;-85
2022/05/05 06:17:50;;;;;;;13.80;12.40;;;13.80;99.90;;;;;;4842130;29;20960;-84
2022/05/05 06:20:16;;;;;;;12.53;11.53;;;14.00;99.90;;;;;;4842206;29;20462;-84
2022/05/05 06:22:42;;;;;;;14.57;13.33;;;14.20;99.90;;;;;;4841998;29;20511;-85
2022/05/05 06:25:13;;;;;;;13.70;12.40;;;14.10;99.90;;;;;;4842647;29;20696;-85
2022/05/05 06:27:42;;;;;;;13.93;12.73;;;14.00;99.90;;;;;;4844999;29;20198;-84
2022/05/05 06:30:37;;;;;;;13.17;11.97;;;14.10;99.90;;;;;;4848237;29;20972;-87
2022/05/05 06:33:14;;;;;;;13.53;12.30;;;13.90;99.90;;;;;;4858615;29;20451;-86
2022/05/05 06:39:11;;;;;;;12.47;11.37;;;14.00;99.90;;;;;;4853613;29;20462;-86
2022/05/05 06:41:53;;;;;;;13.37;11.50;;;14.20;99.90;;;;;;4835355;29;20458;-86
2022/05/05 06:44:41;;;;;;;12.00;11.00;;;14.40;99.90;;;;;;4835705;29;20548;-87
2022/05/05 06:47:10;;;;;;;12.60;11.53;;;14.50;99.90;;;;;;4842532;29;20450;-86
2022/05/05 06:49:38;;;;;;;13.57;12.40;;;14.40;99.90;;;;;;4859011;29;20590;-86
2022/05/05 06:52:05;;;;;;;13.40;12.20;;;14.40;99.90;;;;;;4844306;29;20926;-86
2022/05/05 06:54:33;;;;;;;13.77;12.60;;;14.40;99.90;;;;;;4843156;29;20461;-86
2022/05/05 06:57:14;;;;;;;13.33;12.13;;;14.30;99.90;;;;;;4864179;29;20567;-86
2022/05/05 06:59:44;;;;;;;14.10;12.90;;;13.90;99.90;;;;;;4850481;29;20451;-87
2022/05/05 07:02:12;;;;;;;13.87;12.43;;;13.90;99.90;;;;;;4842553;29;20719;-88
2022/05/05 07:07:29;;;;;;;13.77;12.50;;;14.30;99.90;;;;;;4852917;29;20450;-86
2022/05/05 07:12:53;;;;;;;14.50;13.30;;;14.50;99.90;;;;;;4854703;29;20487;-87
2022/05/05 07:15:20;;;;;;;13.10;11.80;;;14.60;99.90;;;;;;4851800;29;20439;-86
2022/05/05 07:17:47;;;;;;;13.60;12.40;;;14.60;99.90;;;;;;4852852;29;20491;-87
2022/05/05 07:20:12;;;;;;;12.70;11.60;;;15.20;99.90;;;;;;4841105;29;20849;-84
2022/05/05 07:22:40;;;;;;;13.40;12.17;;;15.20;99.90;;;;;;4846164;29;20828;-85
2022/05/05 07:25:07;;;;;;;12.73;11.63;;;15.20;99.90;;;;;;4845207;29;20484;-85
2022/05/05 07:27:32;;;;;;;23.70;21.60;;;15.20;99.90;;;;;;4835663;29;20451;-85
2022/05/05 07:29:58;;;;;;;14.00;12.70;;;15.20;99.90;;;;;;4838831;29;20450;-85
2022/05/05 07:32:24;;;;;;;13.27;12.17;;;15.00;99.90;;;;;;4842216;29;20194;-84
2022/05/05 07:34:49;;;;;;;31.40;28.30;;;15.00;99.90;;;;;;4862308;29;20829;-86
2022/05/05 07:37:15;;;;;;;15.20;13.20;;;14.90;99.90;;;;;;4845883;29;20206;-86
2022/05/05 07:39:41;;;;;;;15.03;13.53;;;14.60;99.90;;;;;;4863281;29;20324;-85
2022/05/05 07:42:08;;;;;;;14.70;13.30;;;14.20;99.90;;;;;;4849288;29;20205;-85
2022/05/05 07:44:36;;;;;;;15.27;13.97;;;14.10;99.90;;;;;;4855254;29;20277;-85
2022/05/05 07:47:01;;;;;;;15.83;14.43;;;14.40;99.90;;;;;;4845723;29;20451;-85
2022/05/05 07:49:30;;;;;;;15.80;14.23;;;14.20;99.90;;;;;;4845940;29;20543;-86
2022/05/05 07:51:55;;;;;;;16.57;14.87;;;14.10;99.90;;;;;;4844237;29;20213;-85
2022/05/05 07:54:38;;;;;;;15.53;14.10;;;14.20;99.90;;;;;;4840608;29;20508;-85
2022/05/05 07:57:07;;;;;;;15.23;13.73;;;14.50;99.90;;;;;;4847290;29;20206;-85
2022/05/05 07:59:33;;;;;;;16.23;14.67;;;14.20;99.90;;;;;;4843635;29;20510;-86
2022/05/05 08:01:59;;;;;;;16.97;15.50;;;14.70;99.90;;;;;;4841690;29;20486;-85
2022/05/05 08:04:25;;;;;;;15.83;14.23;;;14.90;99.90;;;;;;4845520;29;20487;-85
2022/05/05 08:06:51;;;;;;;17.77;16.17;;;14.70;99.90;;;;;;4862884;29;20455;-86
2022/05/05 08:09:18;;;;;;;17.70;16.00;;;15.00;99.90;;;;;;4840137;29;20767;-86
2022/05/05 08:11:44;;;;;;;16.83;15.23;;;15.10;99.90;;;;;;4847547;29;20985;-86
2022/05/05 08:14:10;;;;;;;17.50;15.97;;;15.10;99.90;;;;;;4846003;29;20447;-86
2022/05/05 08:16:35;;;;;;;17.60;15.80;;;15.20;99.90;;;;;;4839266;29;20447;-86
2022/05/05 08:19:03;;;;;;;18.90;17.20;;;15.10;99.90;;;;;;4839154;29;21595;-86
2022/05/05 08:21:28;;;;;;;16.80;15.10;;;15.00;99.90;;;;;;4841639;29;20217;-87
2022/05/05 08:30:02;;;;;;;18.47;16.80;;;14.90;99.90;;;;;;4850171;29;20916;-87
2022/05/05 08:32:57;;;;;;;19.33;17.53;;;14.80;99.90;;;;;;4840077;29;20462;-87
2022/05/05 08:35:27;;;;;;;18.83;16.90;;;14.60;99.90;;;;;;4834024;29;21022;-86
2022/05/05 08:37:53;;;;;;;19.40;17.60;;;14.60;99.90;;;;;;4826270;29;21705;-86
2022/05/05 08:40:25;;;;;;;17.67;16.03;;;14.60;99.90;;;;;;4831309;29;20534;-86
2022/05/05 08:42:56;;;;;;;18.43;16.73;;;14.40;99.90;;;;;;4844648;29;20995;-86
2022/05/05 08:45:35;;;;;;;18.07;16.37;;;14.60;99.90;;;;;;4829803;29;20506;-86
2022/05/05 08:48:07;;;;;;;20.60;18.60;;;14.70;99.90;;;;;;4835876;29;20530;-86
2022/05/05 08:50:38;;;;;;;18.73;16.93;;;14.50;99.90;;;;;;4824579;29;20451;-86
2022/05/05 08:53:08;;;;;;;20.10;18.20;;;14.70;99.90;;;;;;4848844;29;20550;-87
2022/05/05 08:55:54;;;;;;;19.27;17.13;;;14.40;99.90;;;;;;4822566;29;21150;-86
2022/05/05 08:58:21;;;;;;;20.37;18.37;;;14.30;99.90;;;;;;4845430;29;20506;-86
2022/05/05 09:00:50;;;;;;;20.40;18.37;;;14.30;99.90;;;;;;4843026;29;20587;-86
2022/05/05 09:03:18;;;;;;;19.73;17.80;;;14.20;99.90;;;;;;4839502;29;20549;-87
2022/05/05 09:05:51;;;;;;;21.30;19.10;;;14.00;99.90;;;;;;4827764;29;20534;-86
2022/05/05 09:08:33;;;;;;;21.40;19.33;;;13.80;99.90;;;;;;4838419;29;20487;-87
2022/05/05 09:11:06;;;;;;;20.60;18.60;;;13.70;99.90;;;;;;4841985;29;20879;-86
2022/05/05 09:13:42;;;;;;;19.60;17.70;;;13.60;99.90;;;;;;4827162;29;20459;-87
2022/05/05 09:16:10;;;;;;;19.33;17.50;;;14.00;99.90;;;;;;4810740;29;20503;-87
2022/05/05 09:18:37;;;;;;;20.70;16.87;;;14.20;99.90;;;;;;4837337;29;20466;-86
2022/05/05 09:21:06;;;;;;;21.07;18.90;;;14.00;99.90;;;;;;4825870;29;20443;-86
2022/05/05 09:26:26;;;;;;;18.87;16.93;;;14.10;99.90;;;;;;4823704;29;20458;-86
2022/05/05 09:28:52;;;;;;;19.03;17.23;;;14.10;99.90;;;;;;4830342;29;20518;-87
2022/05/05 09:31:19;;;;;;;19.03;17.13;;;14.00;99.90;;;;;;4839044;29;20443;-87
2022/05/05 09:33:53;;;;;;;18.30;16.60;;;14.50;99.90;;;;;;4825391;29;20469;-87
2022/05/05 09:36:27;;;;;;;19.30;17.27;;;14.30;99.90;;;;;;4841712;29;20185;-87
2022/05/05 09:39:00;;;;;;;19.23;17.33;;;13.90;99.90;;;;;;4809153;29;20459;-87
2022/05/05 09:41:32;;;;;;;19.57;17.67;;;14.00;99.90;;;;;;4835542;29;20786;-87
2022/05/05 09:44:21;;;;;;;19.90;18.10;;;14.10;99.90;;;;;;4830163;29;21019;-87
2022/05/05 09:46:50;;;;;;;19.83;18.00;;;14.10;99.90;;;;;;4841365;29;20454;-87
2022/05/05 09:49:33;;;;;;;20.27;18.37;;;14.30;99.90;;;;;;4822180;29;20494;-86
2022/05/05 09:57:40;;;;;;;21.73;19.73;;;15.00;99.90;;;;;;4828847;29;20554;-87
2022/05/05 10:05:58;;;;;;;18.83;17.20;;;15.00;99.90;;;;;;4831120;29;20465;-87
2022/05/05 10:08:42;;;;;;;19.20;17.50;;;15.00;99.90;;;;;;4828181;29;20479;-87
2022/05/05 10:11:08;;;;;;;19.90;18.00;;;15.20;99.90;;;;;;4829335;29;20526;-86
2022/05/05 10:13:38;;;;;;;21.00;18.97;;;15.10;99.90;;;;;;4830651;29;21246;-86
2022/05/05 10:16:05;;;;;;;21.27;19.27;;;15.10;99.90;;;;;;4840789;29;20449;-86
2022/05/05 10:18:39;;;;;;;21.40;19.40;;;15.20;99.90;;;;;;4839190;29;20448;-86
2022/05/05 10:21:08;;;;;;;22.23;19.87;;;15.30;99.90;;;;;;4828048;29;20447;-87
2022/05/05 10:24:00;;;;;;;21.83;19.93;;;15.10;99.90;;;;;;4848718;29;20455;-86
2022/05/05 10:26:26;;;;;;;19.63;17.70;;;14.60;99.90;;;;;;4839671;29;20563;-86
2022/05/05 10:28:52;;;;;;;20.13;18.30;;;14.70;99.90;;;;;;4828031;29;20524;-86
2022/05/05 10:31:30;;;;;;;21.43;18.80;;;14.90;99.90;;;;;;4842572;29;20197;-86
2022/05/05 10:34:04;;;;;;;19.83;17.90;;;15.00;99.90;;;;;;4851370;29;20549;-86
2022/05/05 10:36:39;;;;;;;20.83;18.83;;;15.10;99.90;;;;;;4829721;29;21706;-86
2022/05/05 10:39:39;;;;;;;19.77;17.87;;;15.20;99.90;;;;;;4823973;29;20473;-86
2022/05/05 10:42:45;;;;;;;19.83;18.10;;;15.30;99.90;;;;;;4827060;29;20539;-86
2022/05/05 10:45:19;;;;;;;20.47;18.57;;;15.40;99.90;;;;;;4837881;29;20978;-87
2022/05/05 10:48:06;;;;;;;21.27;19.37;;;15.50;99.90;;;;;;4838489;29;20462;-87
2022/05/05 10:51:10;;;;;;;21.23;19.20;;;15.50;99.90;;;;;;4837337;29;20455;-87
2022/05/05 10:53:52;;;;;;;23.27;21.07;;;15.30;99.90;;;;;;4826000;29;20450;-86
2022/05/05 10:56:23;;;;;;;23.63;21.53;;;15.30;99.90;;;;;;4838011;29;21209;-86
2022/05/05 10:59:09;;;;;;;25.20;22.70;;;14.90;99.90;;;;;;4835964;29;20447;-86
2022/05/05 11:01:44;;;;;;;22.23;20.23;;;14.80;99.90;;;;;;4827527;29;20911;-86
2022/05/05 11:04:30;;;;;;;25.10;22.70;;;15.30;99.90;;;;;;4832912;29;20461;-86
2022/05/05 11:07:21;;;;;;;24.13;21.70;;;14.90;99.90;;;;;;4819017;29;20453;-86
2022/05/05 11:09:47;;;;;;;27.03;24.23;;;14.60;99.90;;;;;;4824425;29;21289;-86
2022/05/05 11:12:17;;;;;;;25.00;22.60;;;14.40;99.90;;;;;;4818719;29;20481;-86
2022/05/05 11:23:53;;;;;;;26.10;23.50;;;14.70;99.90;;;;;;4817490;29;20466;-87
2022/05/05 11:26:20;;;;;;;27.60;23.53;;;14.90;99.90;;;;;;4805445;29;20489;-86
2022/05/05 11:28:48;;;;;;;26.50;23.80;;;15.40;99.90;;;;;;4821373;29;20590;-87
2022/05/05 11:31:58;;;;;;;26.47;24.03;;;15.70;99.90;;;;;;4824010;29;21027;-87
2022/05/05 11:34:36;;;;;;;37.00;26.17;;;15.60;99.90;;;;;;4812204;29;22297;-89
2022/05/05 11:37:05;;;;;;;25.30;23.00;;;16.50;99.90;;;;;;4814944;29;20466;-89
2022/05/05 11:39:33;;;;;;;26.90;24.33;;;16.40;99.90;;;;;;4832524;29;20509;-88
2022/05/05 11:42:17;;;;;;;27.50;24.80;;;16.50;99.90;;;;;;4833925;29;20530;-88
2022/05/05 11:44:48;;;;;;;28.70;25.70;;;16.80;99.90;;;;;;4831288;29;20443;-88
2022/05/05 11:47:22;;;;;;;24.87;22.60;;;18.00;99.90;;;;;;4838447;29;20447;-88
2022/05/05 11:49:52;;;;;;;41.63;26.37;;;18.30;99.90;;;;;;4821907;29;20519;-87
2022/05/05 11:52:25;;;;;;;38.40;25.23;;;18.90;99.90;;;;;;4820732;29;20848;-88
2022/05/05 11:54:56;;;;;;;26.67;24.07;;;19.00;99.90;;;;;;4813992;29;20455;-88
2022/05/05 11:57:38;;;;;;;25.33;23.13;;;18.90;99.90;;;;;;4836387;29;20589;-87
2022/05/05 12:03:02;;;;;;;29.60;26.73;;;18.50;99.90;;;;;;4817754;29;20482;-87
2022/05/05 12:05:29;;;;;;;28.57;25.67;;;18.50;99.90;;;;;;4818901;29;21644;-87
2022/05/05 12:07:59;;;;;;;31.17;28.30;;;17.90;99.90;;;;;;4814479;29;20455;-87
2022/05/05 12:10:36;;;;;;;28.77;26.27;;;18.20;99.90;;;;;;4828452;29;20973;-87
2022/05/05 12:13:02;;;;;;;26.57;24.07;;;18.10;99.90;;;;;;4821172;29;20447;-86
2022/05/05 12:15:28;;;;;;;27.10;24.73;;;18.30;99.90;;;;;;4836338;29;20493;-87
2022/05/05 12:18:04;;;;;;;28.20;25.80;;;17.70;99.90;;;;;;4830529;29;20444;-89
2022/05/05 12:20:30;;;;;;;28.60;25.93;;;17.00;99.90;;;;;;4813674;29;22154;-92
2022/05/05 12:22:58;;;;;;;28.80;26.17;;;17.10;99.90;;;;;;4829919;29;20450;-90
2022/05/05 12:25:25;;;;;;;27.87;25.17;;;17.70;99.90;;;;;;4815008;29;20450;-86
2022/05/05 12:28:03;;;;;;;27.97;25.53;;;18.30;99.90;;;;;;4813990;29;20458;-86
2022/05/05 12:30:37;;;;;;;25.77;23.37;;;19.10;99.90;;;;;;4821732;29;20439;-87
2022/05/05 12:33:28;;;;;;;;;;;;;;;;;;;;;
2022/05/05 12:36:41;;;;;;;24.43;22.17;;;19.50;99.90;;;;;;4820776;29;20472;-88
2022/05/05 12:39:30;;;;;;;23.13;21.20;;;19.20;99.90;;;;;;4817567;29;20541;-86
2022/05/05 12:41:56;;;;;;;26.17;23.57;;;19.10;99.90;;;;;;4820775;29;20450;-87
2022/05/05 12:44:22;;;;;;;24.07;21.97;;;18.60;99.90;;;;;;4826945;29;20810;-85
2022/05/05 12:46:54;;;;;;;22.63;20.57;;;19.20;99.90;;;;;;4831435;29;20607;-85
2022/05/05 12:50:06;;;;;;;;;;;;;;;;;;;;;
2022/05/05 13:01:06;;;;;;;29.90;27.20;;;20.10;99.90;;;;;;4825300;29;20470;-86
2022/05/05 13:03:35;;;;;;;26.60;24.20;;;19.30;99.90;;;;;;4838608;29;20500;-86
2022/05/05 13:06:04;;;;;;;28.43;26.03;;;18.60;99.90;;;;;;4824323;29;20201;-87
2022/05/05 13:08:42;;;;;;;31.10;28.07;;;18.30;99.90;;;;;;4830695;29;21024;-88
2022/05/05 13:11:19;;;;;;;;;;;;;;;;;;;;;
2022/05/05 13:14:02;;;;;;;28.90;26.30;;;18.30;99.90;;;;;;4834950;29;20473;-86
2022/05/05 13:16:42;;;;;;;27.97;25.47;;;18.80;99.90;;;;;;4849455;29;20466;-86
2022/05/05 13:19:09;;;;;;;27.57;25.27;;;18.20;99.90;;;;;;4859881;29;20432;-86
2022/05/05 13:21:40;;;;;;;28.87;26.27;;;17.40;99.90;;;;;;4848235;29;20452;-86
2022/05/05 13:24:20;;;;;;;26.33;23.93;;;17.30;99.90;;;;;;4841785;29;20495;-86
2022/05/05 13:27:18;;;;;;;26.83;24.50;;;18.00;99.90;;;;;;4838196;29;20464;-86
2022/05/05 13:30:09;;;;;;;24.50;22.23;;;18.10;99.90;;;;;;4845601;29;20495;-86
2022/05/05 13:33:00;;;;;;;26.60;24.10;;;18.10;99.90;;;;;;4837931;29;20450;-86
2022/05/05 13:35:53;;;;;;;;;;;;;;;;;;;;;
2022/05/05 13:38:38;;;;;;;25.17;23.00;;;19.60;99.90;;;;;;4839959;29;20963;-86
2022/05/05 13:41:19;;;;;;;23.93;21.87;;;19.30;99.90;;;;;;4839958;29;20864;-86
2022/05/05 13:43:56;;;;;;;23.40;21.10;;;19.70;99.90;;;;;;4841136;29;20983;-86
2022/05/05 13:46:29;;;;;;;23.70;21.60;;;20.60;99.90;;;;;;4854375;29;20451;-86
2022/05/05 13:49:10;;;;;;;24.67;22.27;;;20.10;99.90;;;;;;4852150;29;20557;-87
2022/05/05 13:51:36;;;;;;;25.87;23.57;;;20.40;99.90;;;;;;4845163;29;20751;-87
2022/05/05 13:54:01;;;;;;;25.77;23.67;;;21.00;99.90;;;;;;4836903;29;20478;-87
2022/05/05 13:56:30;;;;;;;23.60;21.40;;;21.50;99.90;;;;;;4849282;29;20482;-87
2022/05/05 13:59:18;;;;;;;21.47;19.57;;;23.20;99.50;;;;;;4867127;29;20202;-86